• Join FlightAware (Why Join?)
  • Login
  • US Flag 
08:11AM EDT


 

Airport Tracker/Info


-or-


 

Live Flight TrackerFlight Track Log ✈ EJA396 ✈ 29-Apr-2013 ✈ KMIA - KTEB

Flight Track Log - Related Links

Times and Time Zones

All times are in EDT time to prevent confusion due to time zone crossing. See the EJA396 flight status page for this flight to view local times or setup timezone preferences in your user account.

Time Position Orientation Groundspeed Altitude Reporting Facility
EDT Latitude Longitude Course Direction KTS MPH feet Rate Location/Type
09:18AM 25.8000 -80.2814 81° East 142 163 900  Level Miami Center
09:19AM 25.8125 -80.1894 81° East 260 299 6,200 2,700 Climbing Miami Center
09:20AM 25.8247 -80.1136 80° East 308 354 7,400 2,460 Climbing Miami Center
09:21AM 25.8597 -80.0408 62° Northeast 288 331 11,100 3,060 Climbing Miami Center
09:22AM 25.9033 -79.9589 59° Northeast 280 322 13,600 2,220 Climbing Miami Center
09:23AM 25.9597 -79.8656 56° Northeast 317 365 15,600 2,100 Climbing Miami Center
09:24AM 26.0203 -79.7606 57° Northeast 365 420 17,800 2,280 Climbing Miami Center
09:25AM 26.0869 -79.6628 53° Northeast 389 448 20,200 2,280 Climbing Miami Center
09:26AM 26.1822 -79.5956 32° Northeast 394 453 22,400 2,100 Climbing Miami Center
09:27AM 26.2875 -79.5400 25° Northeast 401 461 24,400 1,980 Climbing Miami Center
09:28AM 26.3953 -79.4822 26° Northeast 412 474 26,400 1,980 Climbing Miami Center
09:29AM 26.5047 -79.4267 24° Northeast 417 480 28,400 1,920 Climbing Miami Center
09:30AM 26.6144 -79.3708 24° Northeast 422 486 30,300 1,980 Climbing Miami Center
09:31AM 26.7219 -79.3103 27° Northeast 428 493 32,400 1,320 Climbing Miami Center
09:32AM 26.8314 -79.2569 23° Northeast 428 493 33,000 720 Climbing Miami Center
09:33AM 26.9472 -79.1986 24° Northeast 435 501 33,900 1,200 Climbing Miami Center
09:34AM 27.0569 -79.1331 28° Northeast 441 507 35,400 1,560 Climbing Miami Center
09:35AM 27.1789 -79.0725 24° Northeast 443 510 37,100 1,500 Climbing Miami Center
09:36AM 27.2928 -79.0139 25° Northeast 443 510 38,400 1,080 Climbing Miami Center
09:37AM 27.4000 -78.9575 25° Northeast 436 502 39,300 900 Climbing Miami Center
09:38AM 27.5047 -78.9358 10° North 422 486 40,300 840 Climbing Miami Center
09:39AM 27.6178 -78.9169 North 416 479 41,000 300 Climbing Miami Center
09:40AM 27.7494 -78.9006 North 416 479 41,000  Level Miami Center
09:41AM 27.8708 -78.8861 North 430 495 41,000  Level Miami Center
09:42AM 27.9797 -78.8717 North 430 495 41,000  Level Miami Center
09:43AM 28.0989 -78.8550 North 430 495 41,000  Level Miami Center
09:44AM 28.2203 -78.8358 North 430 495 41,000  Level Miami Center
09:45AM 28.3436 -78.8192 North 430 495 41,000  Level Miami Center
09:46AM 28.4692 -78.8025 North 440 506 41,000  Level Miami Center
09:47AM 28.5903 -78.7833 North 440 506 41,000  Level Miami Center
09:48AM 28.7094 -78.7664 North 440 506 41,000  Level Miami Center
09:49AM 28.8350 -78.7494 North 446 513 41,000  Level Miami Center
09:50AM 28.9603 -78.7328 North 451 519 41,000  Level Miami Center
09:51AM 29.0817 -78.7158 North 444 511 41,000  Level Miami Center
09:52AM 29.2050 -78.6989 North 444 511 41,000  Level Miami Center
09:53AM 29.3283 -78.6794 North 444 511 41,000  Level Miami Center
09:54AM 29.4517 -78.6625 North 444 511 41,000  Level Miami Center
09:55AM 29.5811 -78.6456 North 451 519 41,000  Level Miami Center
09:56AM 29.7022 -78.6308 North 446 513 41,000  Level Miami Center
09:57AM 29.8214 -78.6089 North 440 506 41,000  Level Miami Center
09:58AM 29.9411 -78.5833 10° North 442 509 41,000  Level Jacksonville Center
09:59AM 30.0636 -78.5608 North 442 509 41,000  Level Jacksonville Center
10:00AM 30.1928 -78.5528 North 442 509 41,000  Level Jacksonville Center
10:01AM 30.3172 -78.5375 North 442 509 41,000  Level Jacksonville Center
10:02AM 30.4419 -78.5197 North 449 517 41,000  Level Jacksonville Center
10:03AM 30.5644 -78.4997 North 449 517 41,000  Level Jacksonville Center
10:04AM 30.6889 -78.4769 North 444 511 41,000  Level Jacksonville Center
10:05AM 30.8156 -78.4567 North 444 511 41,000  Level Jacksonville Center
10:06AM 30.9400 -78.4364 North 450 518 41,000  Level Jacksonville Center
10:07AM 31.0689 -78.4156 North 456 525 41,000  Level Jacksonville Center
10:08AM 31.1914 -78.4000 North 451 519 41,000  Level Jacksonville Center
10:09AM 31.3178 -78.3769 North 456 525 41,000  Level Jacksonville Center
10:10AM 31.4444 -78.3564 North 461 531 41,000  Level Jacksonville Center
10:11AM 31.5753 -78.3328 North 466 536 41,000  Level Jacksonville Center
10:12AM 31.6956 -78.3147 North 460 529 41,000  Level Jacksonville Center
10:13AM 31.8222 -78.2939 North 455 524 41,000  Level Jacksonville Center
10:14AM 31.9506 -78.2703 North 455 524 41,000  Level Jacksonville Center
10:15AM 32.0875 -78.2411 10° North 460 529 41,000  Level Jacksonville Center
10:16AM 32.2139 -78.2200 North 460 529 41,000  Level Jacksonville Center
10:17AM 32.3447 -78.2036 North 465 535 41,000  Level Jacksonville Center
10:18AM 32.4694 -78.1847 North 460 529 41,000  Level Jacksonville Center
10:19AM 32.5956 -78.1586 10° North 460 529 41,000  Level Jacksonville Center
10:20AM 32.7244 -78.1444 North 460 529 41,000  Level Jacksonville Center
10:21AM 32.8489 -78.1206 North 460 529 41,000  Level Jacksonville Center
10:22AM 32.9753 -78.0989 North 460 529 41,000  Level Jacksonville Center
10:23AM 33.1019 -78.0822 North 460 529 41,000  Level Jacksonville Center
10:24AM 33.2328 -78.0603 North 460 529 41,000  Level Jacksonville Center
10:25AM 33.3592 -78.0386 North 460 529 41,000  Level Jacksonville Center
10:26AM 33.4358 -78.0253 North 461 531 41,000 -120 Level Washington Center
10:27AM 33.5614 -78.0064 North 485 558 40,900  Descending Washington Center
10:28AM 33.6889 -77.9853 North 472 543 41,000  Climbing Washington Center
10:29AM 33.8125 -77.9661 North 458 527 41,000  Level Washington Center
10:30AM 33.9339 -77.9422 North 458 527 41,000  Level Washington Center
10:31AM 34.0636 -77.9158 10° North 469 540 41,000  Level Washington Center
10:32AM 34.1819 -77.8439 27° Northeast 469 540 41,000  Level Washington Center
10:33AM 34.3092 -77.8447 360° North 449 517 41,000  Level Washington Center
10:34AM 34.4036 -77.9253 325° Northwest 413 475 41,000  Level Washington Center
10:35AM 34.4958 -78.0086 323° Northwest 393 452 41,000  Level Washington Center
10:36AM 34.6097 -78.0497 343° North 410 472 41,000  Level Washington Center
10:37AM 34.7414 -78.0411 North 424 488 41,000  Level Washington Center
10:38AM 34.8689 -78.0272 North 448 516 41,000  Level Washington Center
10:39AM 34.9964 -78.0183 North 454 522 41,000  Level Washington Center
10:40AM 35.1258 -78.0097 North 461 531 41,000  Level Washington Center
10:41AM 35.2536 -77.9983 North 461 531 41,000  Level Washington Center
10:42AM 35.3808 -77.9892 North 461 531 41,000  Level Washington Center
10:43AM 35.5208 -77.9781 North 461 531 41,000  Level Washington Center
10:44AM 35.6506 -77.9692 North 461 531 41,000  Level Washington Center
10:45AM 35.7800 -77.9628 North 461 531 41,000  Level Washington Center
10:46AM 35.9075 -77.9514 North 461 531 41,000  Level Washington Center
10:47AM 36.0372 -77.9397 North 461 531 41,000  Level Washington Center
10:48AM 36.1644 -77.9306 North 461 531 41,000  Level Washington Center
10:49AM 36.2919 -77.9242 North 461 531 41,000  Level Washington Center
10:50AM 36.4194 -77.9175 North 461 531 41,000  Level Washington Center
10:51AM 36.5428 -77.9031 North 456 525 41,000  Level Washington Center
10:52AM 36.6703 -77.8942 North 456 525 41,000  Level Washington Center
10:53AM 36.7975 -77.8850 North 461 531 41,000  Level Washington Center
10:54AM 36.9250 -77.8756 North 461 531 41,000  Level Washington Center
10:55AM 37.0547 -77.8639 North 461 531 41,000  Level Washington Center
10:56AM 37.1819 -77.8572 North 461 531 41,000  Level Washington Center
10:57AM 37.3136 -77.8456 North 461 531 41,000  Level Washington Center
10:58AM 37.4411 -77.8308 North 461 531 41,000  Level Washington Center
10:59AM 37.5631 -77.7819 18° North 461 531 41,000  Level Washington Center
11:00AM 37.6772 -77.6936 31° Northeast 456 525 41,000  Level Washington Center
11:01AM 37.7833 -77.5939 37° Northeast 468 539 41,000 -720 Level Washington Center
11:02AM 37.8911 -77.4994 35° Northeast 473 544 39,600 -1,680 Descending Washington Center
11:03AM 38.0011 -77.3994 36° Northeast 473 544 37,600 -1,860 Descending Washington Center
11:04AM 38.0983 -77.3147 34° Northeast 473 544 35,900 -1,380 Descending Washington Center
11:05AM 38.2103 -77.2089 37° Northeast 489 563 35,000 -480 Descending Washington Center
11:06AM 38.3200 -77.1056 36° Northeast 506 582 35,000  Level Washington Center
11:07AM 38.4339 -76.9992 36° Northeast 506 582 35,000 -840 Level Washington Center
11:08AM 38.5456 -76.8950 36° Northeast 506 582 33,400 -1,680 Descending Washington Center
11:09AM 38.6572 -76.7933 35° Northeast 501 577 31,700 -1,740 Descending Washington Center
11:10AM 38.7606 -76.6806 40° Northeast 491 565 30,000 -1,680 Descending Washington Center
11:11AM 38.8636 -76.5619 42° Northeast 491 565 28,400 -1,740 Descending Washington Center
11:12AM 38.9644 -76.4458 42° Northeast 486 559 26,600 -1,740 Descending Washington Center
11:13AM 39.0653 -76.3294 42° Northeast 486 559 24,900 -1,320 Descending Washington Center
11:14AM 39.1619 -76.2153 42° Northeast 481 554 24,000 -660 Descending Washington Center
11:15AM 39.2625 -76.1036 41° Northeast 475 547 23,700 -1,620 Descending Washington Center
11:17AM 39.5000 -75.8833 36° Northeast 416 479 18,800 -2,040 Descending Philadelphia TRACON
11:18AM 39.5833 -75.8000 38° Northeast 391 450 17,000 -1,860 Descending Philadelphia TRACON
11:19AM 39.6667 -75.7167 38° Northeast 366 421 15,300 -1,800 Descending Philadelphia TRACON
11:20AM 39.7500 -75.6500 32° Northeast 361 415 13,600 -1,200 Descending Philadelphia TRACON
11:21AM 39.8333 -75.5667 38° Northeast 363 418 12,900 -360 Descending Philadelphia TRACON
11:22AM 39.9167 -75.5000 32° Northeast 369 425 12,900  Level Philadelphia TRACON
11:23AM 40.0000 -75.4167 37° Northeast 361 415 12,900  Level Philadelphia TRACON
11:24AM 40.0667 -75.3500 37° Northeast 359 413 12,900  Level Philadelphia TRACON
11:25AM 40.1500 -75.2833 31° Northeast 360 414 12,900 -720 Level Philadelphia TRACON
11:26AM 40.2333 -75.2000 37° Northeast 310 357 11,400 -1,560 Descending Philadelphia TRACON
11:27AM 40.3000 -75.1333 37° Northeast 304 350 9,500 -1,740 Descending Philadelphia TRACON
11:28AM 40.3500 -75.0667 45° Northeast 291 335 8,200 -1,380 Descending New York TRACON
11:29AM 40.4167 -75.0000 37° Northeast 301 346 7,000 -1,320 Descending New York TRACON
11:30AM 40.4667 -74.9500 37° Northeast 275 316 5,800 -1,500 Descending New York TRACON
11:31AM 40.5333 -74.8833 37° Northeast 290 334 4,000 -900 Descending New York TRACON
11:32AM 40.6000 -74.8167 37° Northeast 285 328 4,000  Level New York TRACON
11:33AM 40.6667 -74.7667 30° Northeast 292 336 4,000  Level New York TRACON
11:34AM 40.7333 -74.7000 37° Northeast 291 335 4,000  Level New York TRACON
11:35AM 40.8000 -74.6500 30° Northeast 292 336 4,000  Level New York TRACON
11:36AM 40.8667 -74.5833 37° Northeast 291 335 4,000 -300 Level New York TRACON
11:37AM 40.9167 -74.5167 45° Northeast 265 305 3,400 -480 Descending New York TRACON
11:38AM 40.9667 -74.4500 45° Northeast 227 261 3,000 -240 Descending New York TRACON
11:39AM 40.9833 -74.3667 75° East 213 245 3,000 -240 Level New York TRACON
11:40AM 40.9833 -74.3000 90° East 202 232 2,600 -540 Descending New York TRACON
11:41AM 40.9833 -74.2333 90° East 206 237 2,000 -300 Descending New York TRACON
11:42AM 40.9833 -74.1500 90° East 208 239 2,000  Level New York TRACON
11:43AM 40.9833 -74.0833 90° East 184 212 2,000  Level New York TRACON
11:44AM 40.9500 -74.0500 143° Southeast 169 194 2,000 -360 Level New York TRACON
11:45AM 40.9167 -74.0500 180° South 107 123 1,300 -720 Descending New York TRACON
11:46AM 40.8833 -74.0500 180° South 120 138 600 -720 Descending New York TRACON
11:48AM 40.8500 -74.0500 150° Southeast  Level FlightAware Approximate